createdAt,value
2023-02-14T00:01:43.026Z,101958.19
2023-02-14T00:06:04.891Z,101955.50
2023-02-14T00:11:04.543Z,101958.72
2023-02-14T00:41:30.401Z,101978.38
2023-02-14T01:08:11.176Z,101980.09
2023-02-14T01:35:14.808Z,101933.66
2023-02-14T01:46:40.223Z,101912.09
2023-02-14T02:30:22.266Z,101892.09
2023-02-14T04:01:13.649Z,101892.22
2023-02-14T04:29:22.417Z,101885.97
2023-02-14T04:58:48.059Z,101886.59
2023-02-14T05:14:18.968Z,101896.69
2023-02-14T05:18:01.300Z,101894.06
2023-02-14T05:21:38.670Z,101900.16
2023-02-14T05:24:49.709Z,101905.28
2023-02-14T05:32:03.165Z,101916.47
2023-02-14T05:35:25.230Z,101917.50
2023-02-14T05:38:47.241Z,101918.34
2023-02-14T05:41:59.456Z,101921.78
2023-02-14T05:45:02.163Z,101920.03
2023-02-14T05:48:17.707Z,101926.94
2023-02-14T05:51:26.847Z,101931.22
2023-02-14T05:54:34.426Z,101929.50
2023-02-14T05:57:40.484Z,101931.28
2023-02-14T06:00:47.194Z,101929.56
2023-02-14T06:03:52.777Z,101925.28
2023-02-14T06:06:57.691Z,101930.44
2023-02-14T06:10:03.625Z,101929.47
2023-02-14T06:13:14.846Z,101925.97
2023-02-14T06:16:24.939Z,101927.63
2023-02-14T06:19:29.447Z,101936.78
2023-02-14T06:22:35.139Z,101933.16
2023-02-14T06:25:42.038Z,101928.63
2023-02-14T06:28:56.641Z,101929.44
2023-02-14T06:32:05.944Z,101926.69
2023-02-14T06:35:10.094Z,101922.28
2023-02-14T06:38:17.809Z,101927.44
2023-02-14T06:41:26.962Z,101928.81
2023-02-14T06:44:35.942Z,101929.72
2023-02-14T06:47:47.863Z,101926.22
2023-02-14T06:50:53.101Z,101926.06
2023-02-14T06:54:18.667Z,101931.19
2023-02-14T06:57:31.631Z,101929.41
2023-02-14T07:00:37.507Z,101924.16
2023-02-14T07:03:42.546Z,101927.44
2023-02-14T07:06:51.855Z,101922.22
2023-02-14T07:09:57.944Z,101932.28
2023-02-14T07:13:01.997Z,101922.56
2023-02-14T07:16:08.904Z,101925.13
2023-02-14T07:19:11.624Z,101919.81
2023-02-14T07:22:16.972Z,101924.84
2023-02-14T07:25:24.990Z,101935.09
2023-02-14T07:28:37.805Z,101928.19
2023-02-14T07:31:40.672Z,101929.78
2023-02-14T07:34:44.736Z,101921.13
2023-02-14T07:37:53.532Z,101925.13
2023-02-14T07:41:23.735Z,101920.69
2023-02-14T07:44:27.761Z,101932.66
2023-02-14T07:47:33.085Z,101934.25
2023-02-14T07:50:37.992Z,101935.88
2023-02-14T07:53:41.273Z,101939.88
2023-02-14T07:56:54.422Z,101935.31
2023-02-14T07:59:59.058Z,101930.81
2023-02-14T08:03:01.935Z,101926.19
2023-02-14T08:06:07.899Z,101930.72
2023-02-14T08:09:24.674Z,101933.94
2023-02-14T08:12:52.663Z,101930.22
2023-02-14T08:16:09.625Z,101925.47
2023-02-14T08:19:33.452Z,101933.34
2023-02-14T08:22:37.512Z,101944.47
2023-02-14T08:25:42.748Z,101937.84
2023-02-14T08:28:52.205Z,101942.00
2023-02-14T08:32:00.555Z,101946.62
2023-02-14T08:35:06.553Z,101937.88
2023-02-14T08:38:14.962Z,101941.09
2023-02-14T08:41:20.332Z,101939.00
2023-02-14T08:44:23.113Z,101943.34
2023-02-14T08:47:25.587Z,101937.84
2023-02-14T08:50:30.888Z,101940.97
2023-02-14T08:53:33.798Z,101937.66
2023-02-14T08:56:36.822Z,101946.00
2023-02-14T08:59:41.952Z,101936.22
2023-02-14T09:02:47.342Z,101940.06
2023-02-14T09:05:56.770Z,101948.25
2023-02-14T09:09:01.566Z,101952.00
2023-02-14T09:12:11.089Z,101954.00
2023-02-14T09:15:14.250Z,101949.38
2023-02-14T09:18:22.300Z,101953.53
2023-02-14T09:21:27.661Z,101959.59
2023-02-14T09:24:31.961Z,101957.56
2023-02-14T09:27:35.489Z,101960.72
2023-02-14T09:30:41.763Z,101956.44
2023-02-14T09:34:06.853Z,101956.63
2023-02-14T09:37:31.867Z,101957.84
2023-02-14T09:40:34.759Z,101967.03
2023-02-14T09:43:53.744Z,101964.22
2023-02-14T09:47:07.249Z,101970.09
2023-02-14T09:50:18.178Z,101959.44
2023-02-14T09:53:30.238Z,101956.84
2023-02-14T09:56:56.608Z,101957.66
2023-02-14T10:00:20.184Z,101956.66
2023-02-14T10:03:42.651Z,101954.06
2023-02-14T10:07:42.401Z,101958.44
2023-02-14T10:10:50.806Z,101955.69
2023-02-14T10:14:01.661Z,101950.72
2023-02-14T10:17:07.291Z,101950.66
2023-02-14T10:20:30.168Z,101952.78
2023-02-14T10:23:49.511Z,101956.41
2023-02-14T10:30:47.590Z,101938.59
2023-02-14T10:33:59.473Z,101938.25
2023-02-14T10:37:25.979Z,101936.25
2023-02-14T10:40:55.586Z,101934.75
2023-02-14T10:44:03.975Z,101933.97
2023-02-14T10:47:50.016Z,101924.31
2023-02-14T10:51:20.519Z,101931.44
2023-02-14T10:54:32.617Z,101919.84
2023-02-14T10:57:47.890Z,101923.47
2023-02-14T11:00:58.362Z,101909.91
2023-02-14T11:04:15.366Z,101913.28
2023-02-14T11:07:26.583Z,101901.16
2023-02-14T11:10:45.601Z,101904.06
2023-02-14T11:13:52.219Z,101896.44
2023-02-14T11:17:01.230Z,101905.97
2023-02-14T11:20:30.321Z,101899.38
2023-02-14T11:23:48.980Z,101898.75
2023-02-14T11:27:00.758Z,101899.16
2023-02-14T11:30:25.306Z,101894.84
2023-02-14T11:33:38.672Z,101895.13
2023-02-14T11:36:46.440Z,101887.53
2023-02-14T11:39:58.030Z,101885.72
2023-02-14T11:43:19.115Z,101883.00
2023-02-14T11:46:28.918Z,101866.78
2023-02-14T11:49:35.564Z,101869.78
2023-02-14T11:52:51.193Z,101867.28
2023-02-14T11:56:00.711Z,101859.09
2023-02-14T11:59:24.200Z,101854.22
2023-02-14T12:05:57.351Z,101845.66
2023-02-14T12:09:28.586Z,101843.00
2023-02-14T12:12:35.343Z,101832.56
2023-02-14T12:15:59.448Z,101830.84
2023-02-14T12:19:33.700Z,101827.59
2023-02-14T12:23:09.089Z,101819.53
2023-02-14T12:26:38.675Z,101814.78
2023-02-14T12:30:04.606Z,101819.94
2023-02-14T12:33:23.292Z,101819.06
2023-02-14T12:36:49.600Z,101812.25
2023-02-14T12:40:22.502Z,101807.84
2023-02-14T12:43:34.293Z,101811.00
2023-02-14T12:47:06.139Z,101803.31
2023-02-14T12:50:31.650Z,101804.47
2023-02-14T12:54:03.501Z,101807.78
2023-02-14T12:57:35.735Z,101808.25
2023-02-14T13:01:03.322Z,101809.47
2023-02-14T13:04:37.750Z,101818.28
2023-02-14T13:08:13.544Z,101813.53
2023-02-14T13:11:48.239Z,101806.37
2023-02-14T13:14:57.602Z,101815.19
2023-02-14T13:18:10.533Z,101808.94
2023-02-14T13:21:22.076Z,101807.56
2023-02-14T13:24:30.989Z,101803.94
2023-02-14T13:27:39.802Z,101803.06
2023-02-14T13:30:43.236Z,101802.63
2023-02-14T13:33:54.855Z,101803.16
2023-02-14T13:36:59.328Z,101802.97
2023-02-14T13:40:10.396Z,101800.22
2023-02-14T13:43:15.280Z,101803.97
2023-02-14T13:46:48.836Z,101808.22
2023-02-14T13:49:55.673Z,101797.72
2023-02-14T13:53:01.209Z,101806.50
2023-02-14T13:56:25.692Z,101802.59
2023-02-14T13:59:34.945Z,101807.09
2023-02-14T14:02:46.070Z,101812.53
2023-02-14T14:06:02.675Z,101814.19
2023-02-14T14:09:10.520Z,101801.84
2023-02-14T14:12:30.775Z,101804.75
2023-02-14T14:15:35.367Z,101811.56
2023-02-14T14:18:45.346Z,101810.03
2023-02-14T14:22:10.032Z,101808.94
2023-02-14T14:25:15.707Z,101803.81
2023-02-14T14:28:24.375Z,101801.34
2023-02-14T14:31:31.794Z,101808.62
2023-02-14T14:34:38.068Z,101805.03
2023-02-14T14:38:01.447Z,101805.34
2023-02-14T14:41:09.307Z,101803.09
2023-02-14T14:44:18.095Z,101805.97
2023-02-14T14:47:41.113Z,101799.31
2023-02-14T14:50:53.420Z,101798.69
2023-02-14T14:54:00.889Z,101795.59
2023-02-14T14:57:17.460Z,101796.75
2023-02-14T15:00:42.099Z,101795.31
2023-02-14T15:03:47.543Z,101795.34
2023-02-14T15:06:58.224Z,101795.19
2023-02-14T15:10:07.340Z,101789.59
2023-02-14T15:13:36.204Z,101790.91
2023-02-14T15:16:50.075Z,101789.09
2023-02-14T15:19:57.962Z,101795.81
2023-02-14T15:23:02.154Z,101794.12
2023-02-14T15:26:11.042Z,101798.72
2023-02-14T15:29:25.557Z,101800.31
2023-02-14T15:32:31.219Z,101807.09
2023-02-14T15:35:36.876Z,101812.41
2023-02-14T15:38:43.915Z,101816.28
2023-02-14T15:41:47.270Z,101809.50
2023-02-14T15:45:10.194Z,101814.88
2023-02-14T15:48:38.128Z,101814.78
2023-02-14T15:51:45.500Z,101817.34
2023-02-14T15:54:51.582Z,101813.16
2023-02-14T15:58:05.992Z,101813.94
2023-02-14T16:01:14.545Z,101818.12
2023-02-14T16:04:51.413Z,101824.72
2023-02-14T16:08:25.124Z,101835.31
2023-02-14T16:11:37.246Z,101838.25
2023-02-14T16:14:42.313Z,101827.22
2023-02-14T16:17:49.286Z,101833.28
2023-02-14T16:20:53.021Z,101841.00
2023-02-14T16:24:11.591Z,101843.34
2023-02-14T16:27:19.732Z,101856.25
2023-02-14T16:30:29.481Z,101848.34
2023-02-14T16:33:42.345Z,101848.41
2023-02-14T16:36:53.466Z,101859.53
2023-02-14T16:40:05.498Z,101859.31
2023-02-14T16:43:14.292Z,101860.06
2023-02-14T16:46:28.406Z,101859.12
2023-02-14T16:49:37.448Z,101862.28
2023-02-14T16:52:47.596Z,101871.91
2023-02-14T16:55:56.033Z,101868.34
2023-02-14T16:59:01.025Z,101860.69
2023-02-14T17:02:14.314Z,101857.13
2023-02-14T17:05:21.009Z,101861.50
2023-02-14T17:08:38.511Z,101861.72
2023-02-14T17:11:56.142Z,101863.63
2023-02-14T17:15:08.590Z,101863.19
2023-02-14T17:18:15.118Z,101858.53
2023-02-14T17:21:31.511Z,101867.47
2023-02-14T17:24:47.555Z,101858.38
2023-02-14T17:28:10.309Z,101869.94
2023-02-14T17:31:14.158Z,101877.87
2023-02-14T17:34:20.587Z,101872.91
2023-02-14T17:37:26.098Z,101868.09
2023-02-14T17:40:35.958Z,101869.16
2023-02-14T17:43:40.960Z,101876.28
2023-02-14T17:46:53.409Z,101876.44
2023-02-14T17:50:05.955Z,101876.50
2023-02-14T17:53:19.308Z,101870.87
2023-02-14T17:56:26.194Z,101871.13
2023-02-14T17:59:35.518Z,101880.66
2023-02-14T18:02:50.434Z,101879.84
2023-02-14T18:06:00.877Z,101888.63
2023-02-14T18:09:07.904Z,101882.66
2023-02-14T18:12:15.086Z,101887.81
2023-02-14T18:15:21.646Z,101896.50
2023-02-14T18:18:31.897Z,101898.28
2023-02-14T18:21:39.876Z,101892.34
2023-02-14T18:24:52.579Z,101900.12
2023-02-14T18:27:58.443Z,101895.03
2023-02-14T18:31:16.508Z,101893.22
2023-02-14T18:34:36.015Z,101896.62
2023-02-14T18:37:45.330Z,101895.78
2023-02-14T18:41:04.453Z,101889.72
2023-02-14T18:44:22.036Z,101888.06
2023-02-14T18:47:32.476Z,101887.56
2023-02-14T18:50:42.253Z,101889.75
2023-02-14T18:53:59.916Z,101880.69
2023-02-14T18:57:10.131Z,101877.69
2023-02-14T19:00:14.493Z,101870.56
2023-02-14T19:03:26.657Z,101869.16
2023-02-14T19:06:43.217Z,101874.66
2023-02-14T19:10:03.968Z,101864.72
2023-02-14T19:13:10.911Z,101874.50
2023-02-14T19:16:21.850Z,101878.22
2023-02-14T19:19:30.333Z,101880.22
2023-02-14T19:22:44.468Z,101876.25
2023-02-14T19:25:49.029Z,101885.00
2023-02-14T19:29:00.052Z,101890.38
2023-02-14T19:32:05.764Z,101887.09
2023-02-14T19:35:19.170Z,101882.97
2023-02-14T19:38:24.538Z,101878.78
2023-02-14T19:41:42.894Z,101888.31
2023-02-14T19:44:54.424Z,101879.91
2023-02-14T19:48:03.945Z,101880.09
2023-02-14T19:51:47.435Z,101881.09
2023-02-14T19:54:52.960Z,101883.78
2023-02-14T19:58:13.498Z,101890.75
2023-02-14T20:01:41.998Z,101889.09
2023-02-14T20:05:05.730Z,101889.22
2023-02-14T20:08:09.772Z,101882.44
2023-02-14T20:11:42.221Z,101892.72
2023-02-14T20:14:56.537Z,101893.63
2023-02-14T20:18:10.445Z,101891.19
2023-02-14T20:21:30.307Z,101906.69
2023-02-14T20:24:45.863Z,101901.66
2023-02-14T20:27:55.547Z,101895.56
2023-02-14T20:34:41.315Z,101902.91
2023-02-14T20:38:04.241Z,101896.12
2023-02-14T20:41:18.184Z,101896.12
2023-02-14T20:44:35.427Z,101890.06
2023-02-14T20:47:41.317Z,101889.09
2023-02-14T20:50:55.620Z,101887.44
2023-02-14T20:54:06.444Z,101890.00
2023-02-14T20:57:19.811Z,101887.50
2023-02-14T21:00:51.816Z,101886.47
2023-02-14T21:04:12.974Z,101880.63
2023-02-14T21:07:24.181Z,101882.34
2023-02-14T21:10:29.411Z,101888.44
2023-02-14T21:17:12.765Z,101882.28
2023-02-14T21:20:44.267Z,101884.91
2023-02-14T21:23:55.749Z,101887.44
2023-02-14T21:27:03.228Z,101886.63
2023-02-14T21:33:59.658Z,101889.31
2023-02-14T21:37:18.871Z,101898.44
2023-02-14T21:40:32.292Z,101896.62
2023-02-14T21:43:54.563Z,101899.97
2023-02-14T21:47:10.809Z,101890.56
2023-02-14T21:50:30.233Z,101890.50
2023-02-14T21:53:46.264Z,101882.03
2023-02-14T21:57:05.210Z,101888.81
2023-02-14T22:00:12.498Z,101899.97
2023-02-14T22:03:28.556Z,101895.69
2023-02-14T22:06:44.929Z,101894.06
2023-02-14T22:10:03.957Z,101895.75
2023-02-14T22:13:26.461Z,101890.72
2023-02-14T22:16:42.380Z,101894.06
2023-02-14T22:19:57.428Z,101895.69
2023-02-14T22:23:10.258Z,101899.22
2023-02-14T22:26:58.452Z,101909.56
2023-02-14T22:30:17.608Z,101905.34
2023-02-14T22:37:09.023Z,101909.62
2023-02-14T22:40:45.717Z,101914.87
2023-02-14T22:44:00.832Z,101913.22
2023-02-14T22:47:21.772Z,101904.66
2023-02-14T22:50:35.053Z,101909.72
2023-02-14T22:54:00.975Z,101910.56
2023-02-14T22:57:23.546Z,101913.56
2023-02-14T23:00:42.874Z,101911.81
2023-02-14T23:04:04.608Z,101912.72
2023-02-14T23:07:17.109Z,101909.13
2023-02-14T23:11:16.570Z,101905.00
2023-02-14T23:14:47.200Z,101910.16
2023-02-14T23:18:15.886Z,101904.03
2023-02-14T23:21:54.406Z,101903.06
2023-02-14T23:29:13.607Z,101892.88
2023-02-14T23:32:35.864Z,101898.78
2023-02-14T23:35:56.221Z,101888.38
2023-02-14T23:39:13.555Z,101887.47
2023-02-14T23:43:06.935Z,101885.53
2023-02-14T23:46:30.279Z,101888.06
2023-02-14T23:49:58.824Z,101889.94
2023-02-14T23:53:29.146Z,101895.84
